Aviation Digital Data Service (ADDS)

Output produced by TAFs form (2105 UTC 25 February 2018)
found at http://aviationweather.gov/adds/tafs/
 
KRIC 251906Z 2519/2618 22010KT P6SM SCT035 BKN100 
     FM252300 24006KT P6SM BKN250 
     FM260500 34005KT P6SM BKN250 
     FM260900 02005KT P6SM OVC060